sensor_id;sensor_type;location;lat;lon;timestamp;pressure;altitude;pressure_sealevel;temperature;humidity
25232;BME280;13176;51.140;6.290;2022-07-04T00:01:26;101289.63;;;21.27;50.17
25232;BME280;13176;51.140;6.290;2022-07-04T00:03:53;101313.59;;;21.44;50.39
25232;BME280;13176;51.140;6.290;2022-07-04T00:06:19;101281.00;;;21.22;49.79
25232;BME280;13176;51.140;6.290;2022-07-04T00:08:46;101328.09;;;21.37;50.66
25232;BME280;13176;51.140;6.290;2022-07-04T00:11:13;101326.44;;;21.34;50.90
25232;BME280;13176;51.140;6.290;2022-07-04T00:13:39;101316.03;;;21.30;50.47
25232;BME280;13176;51.140;6.290;2022-07-04T00:16:05;101278.16;;;21.08;50.58
25232;BME280;13176;51.140;6.290;2022-07-04T00:18:32;101333.91;;;21.45;50.56
25232;BME280;13176;51.140;6.290;2022-07-04T00:20:58;101332.53;;;21.36;50.51
25232;BME280;13176;51.140;6.290;2022-07-04T00:23:25;101322.50;;;21.24;51.02
25232;BME280;13176;51.140;6.290;2022-07-04T00:25:51;101280.59;;;20.94;51.12
25232;BME280;13176;51.140;6.290;2022-07-04T00:28:18;101309.88;;;21.11;51.13
25232;BME280;13176;51.140;6.290;2022-07-04T00:30:45;101320.97;;;21.19;51.06
25232;BME280;13176;51.140;6.290;2022-07-04T00:33:12;101283.75;;;21.02;50.32
25232;BME280;13176;51.140;6.290;2022-07-04T00:35:39;101287.22;;;21.04;51.10
25232;BME280;13176;51.140;6.290;2022-07-04T00:38:06;101279.31;;;20.84;51.62
25232;BME280;13176;51.140;6.290;2022-07-04T00:40:32;101280.03;;;20.87;51.27
25232;BME280;13176;51.140;6.290;2022-07-04T00:43:04;101283.03;;;20.80;51.92
25232;BME280;13176;51.140;6.290;2022-07-04T00:45:30;101286.19;;;20.88;51.72
25232;BME280;13176;51.140;6.290;2022-07-04T00:47:57;101309.22;;;20.87;51.90
25232;BME280;13176;51.140;6.290;2022-07-04T00:50:24;101309.66;;;20.77;51.80
25232;BME280;13176;51.140;6.290;2022-07-04T00:52:52;101304.34;;;20.77;52.55
25232;BME280;13176;51.140;6.290;2022-07-04T00:55:20;101281.63;;;20.71;51.97
25232;BME280;13176;51.140;6.290;2022-07-04T00:57:47;101287.22;;;20.66;52.36
25232;BME280;13176;51.140;6.290;2022-07-04T01:00:14;101286.50;;;20.42;52.66
25232;BME280;13176;51.140;6.290;2022-07-04T01:02:40;101277.75;;;20.40;53.00
25232;BME280;13176;51.140;6.290;2022-07-04T01:05:07;101298.31;;;20.55;52.67
25232;BME280;13176;51.140;6.290;2022-07-04T01:07:35;101291.69;;;20.45;52.28
25232;BME280;13176;51.140;6.290;2022-07-04T01:10:02;101302.50;;;20.41;53.10
25232;BME280;13176;51.140;6.290;2022-07-04T01:12:30;101266.94;;;20.26;53.21
25232;BME280;13176;51.140;6.290;2022-07-04T01:14:56;101260.56;;;20.30;52.43
25232;BME280;13176;51.140;6.290;2022-07-04T01:17:23;101232.56;;;20.05;52.55
25232;BME280;13176;51.140;6.290;2022-07-04T01:19:50;101220.81;;;20.10;51.87
25232;BME280;13176;51.140;6.290;2022-07-04T01:22:17;101303.34;;;20.41;52.87
25232;BME280;13176;51.140;6.290;2022-07-04T01:24:44;101183.03;;;19.46;53.13
25232;BME280;13176;51.140;6.290;2022-07-04T01:27:12;101281.75;;;20.10;53.25
25232;BME280;13176;51.140;6.290;2022-07-04T01:29:38;101291.59;;;20.28;53.14
25232;BME280;13176;51.140;6.290;2022-07-04T01:32:08;101273.03;;;20.28;52.42
25232;BME280;13176;51.140;6.290;2022-07-04T01:34:35;101300.06;;;20.36;52.31
25232;BME280;13176;51.140;6.290;2022-07-04T01:37:09;101279.53;;;20.01;53.34
25232;BME280;13176;51.140;6.290;2022-07-04T01:39:36;101297.94;;;20.04;53.79
25232;BME280;13176;51.140;6.290;2022-07-04T01:42:02;101275.00;;;20.03;52.81
25232;BME280;13176;51.140;6.290;2022-07-04T01:44:29;101310.16;;;20.28;52.91
25232;BME280;13176;51.140;6.290;2022-07-04T01:46:55;101299.94;;;20.19;52.99
25232;BME280;13176;51.140;6.290;2022-07-04T01:49:22;101290.25;;;20.18;52.89
25232;BME280;13176;51.140;6.290;2022-07-04T01:51:50;101296.63;;;20.14;53.20
25232;BME280;13176;51.140;6.290;2022-07-04T01:54:16;101293.44;;;20.06;53.27
25232;BME280;13176;51.140;6.290;2022-07-04T01:56:43;101285.81;;;19.77;54.32
25232;BME280;13176;51.140;6.290;2022-07-04T01:59:10;101244.59;;;19.51;53.84
25232;BME280;13176;51.140;6.290;2022-07-04T02:01:37;101288.31;;;19.60;54.59
25232;BME280;13176;51.140;6.290;2022-07-04T02:04:06;101289.63;;;19.51;54.98
25232;BME280;13176;51.140;6.290;2022-07-04T02:06:33;101304.09;;;19.63;54.53
25232;BME280;13176;51.140;6.290;2022-07-04T02:09:00;101261.22;;;19.33;54.28
25232;BME280;13176;51.140;6.290;2022-07-04T02:11:43;101287.69;;;19.54;54.17
25232;BME280;13176;51.140;6.290;2022-07-04T02:14:30;101304.34;;;19.57;54.47
25232;BME280;13176;51.140;6.290;2022-07-04T02:16:57;101296.94;;;19.23;55.48
25232;BME280;13176;51.140;6.290;2022-07-04T02:19:23;101311.66;;;19.07;56.48
25232;BME280;13176;51.140;6.290;2022-07-04T02:21:50;101295.91;;;18.81;57.36
25232;BME280;13176;51.140;6.290;2022-07-04T02:24:18;101297.06;;;18.74;57.15
25232;BME280;13176;51.140;6.290;2022-07-04T02:26:46;101323.56;;;18.95;57.00
25232;BME280;13176;51.140;6.290;2022-07-04T02:29:13;101303.66;;;18.85;56.64
25232;BME280;13176;51.140;6.290;2022-07-04T02:31:40;101294.88;;;18.85;56.80
25232;BME280;13176;51.140;6.290;2022-07-04T02:34:06;101304.63;;;19.06;55.49
25232;BME280;13176;51.140;6.290;2022-07-04T02:36:33;101299.69;;;18.97;56.48
25232;BME280;13176;51.140;6.290;2022-07-04T02:38:59;101280.25;;;18.98;55.43
25232;BME280;13176;51.140;6.290;2022-07-04T02:41:26;101277.59;;;18.98;55.28
25232;BME280;13176;51.140;6.290;2022-07-04T02:43:52;101288.63;;;19.09;55.00
25232;BME280;13176;51.140;6.290;2022-07-04T02:46:19;101283.47;;;19.06;55.25
25232;BME280;13176;51.140;6.290;2022-07-04T02:48:45;101323.25;;;19.03;56.08
25232;BME280;13176;51.140;6.290;2022-07-04T02:51:12;101320.38;;;19.09;55.88
25232;BME280;13176;51.140;6.290;2022-07-04T02:53:38;101315.56;;;18.97;56.00
25232;BME280;13176;51.140;6.290;2022-07-04T02:56:05;101322.06;;;19.11;55.58
25232;BME280;13176;51.140;6.290;2022-07-04T02:58:32;101341.81;;;19.26;55.40
25232;BME280;13176;51.140;6.290;2022-07-04T03:00:59;101335.75;;;18.99;56.21
25232;BME280;13176;51.140;6.290;2022-07-04T03:03:26;101301.66;;;18.46;57.12
25232;BME280;13176;51.140;6.290;2022-07-04T03:05:53;101270.91;;;18.19;57.02
25232;BME280;13176;51.140;6.290;2022-07-04T03:08:19;101350.28;;;18.65;57.54
25232;BME280;13176;51.140;6.290;2022-07-04T03:10:49;101328.00;;;18.47;57.41
25232;BME280;13176;51.140;6.290;2022-07-04T03:13:15;101337.66;;;18.73;56.85
25232;BME280;13176;51.140;6.290;2022-07-04T03:15:42;101339.25;;;18.77;56.41
25232;BME280;13176;51.140;6.290;2022-07-04T03:18:09;101339.69;;;18.65;57.09
25232;BME280;13176;51.140;6.290;2022-07-04T03:20:35;101349.00;;;18.52;57.15
25232;BME280;13176;51.140;6.290;2022-07-04T03:23:02;101369.81;;;18.61;57.59
25232;BME280;13176;51.140;6.290;2022-07-04T03:25:29;101355.56;;;18.65;57.27
25232;BME280;13176;51.140;6.290;2022-07-04T03:27:55;101298.41;;;18.38;56.83
25232;BME280;13176;51.140;6.290;2022-07-04T03:30:22;101363.75;;;18.82;56.92
25232;BME280;13176;51.140;6.290;2022-07-04T03:32:48;101341.09;;;18.75;56.75
25232;BME280;13176;51.140;6.290;2022-07-04T03:35:15;101381.56;;;18.77;56.81
25232;BME280;13176;51.140;6.290;2022-07-04T03:37:41;101344.53;;;18.54;56.76
25232;BME280;13176;51.140;6.290;2022-07-04T03:40:08;101379.97;;;18.73;56.74
25232;BME280;13176;51.140;6.290;2022-07-04T03:42:35;101358.69;;;18.76;56.75
25232;BME280;13176;51.140;6.290;2022-07-04T03:45:03;101349.94;;;18.74;56.79
25232;BME280;13176;51.140;6.290;2022-07-04T03:47:29;101367.53;;;18.52;57.34
25232;BME280;13176;51.140;6.290;2022-07-04T03:49:56;101348.91;;;18.31;58.12
25232;BME280;13176;51.140;6.290;2022-07-04T03:52:23;101350.03;;;18.22;58.59
25232;BME280;13176;51.140;6.290;2022-07-04T03:54:49;101313.06;;;17.96;59.24
25232;BME280;13176;51.140;6.290;2022-07-04T03:57:15;101350.88;;;18.24;58.65
25232;BME280;13176;51.140;6.290;2022-07-04T03:59:42;101298.34;;;17.89;58.97
25232;BME280;13176;51.140;6.290;2022-07-04T04:02:08;101324.56;;;17.95;59.91
25232;BME280;13176;51.140;6.290;2022-07-04T04:04:35;101353.19;;;18.33;59.46
25232;BME280;13176;51.140;6.290;2022-07-04T04:07:20;101344.16;;;18.40;59.06
25232;BME280;13176;51.140;6.290;2022-07-04T04:09:46;101338.53;;;18.49;58.15
25232;BME280;13176;51.140;6.290;2022-07-04T04:12:13;101361.50;;;18.71;58.58
25232;BME280;13176;51.140;6.290;2022-07-04T04:14:39;101333.72;;;18.60;57.96
25232;BME280;13176;51.140;6.290;2022-07-04T04:17:06;101366.34;;;18.83;57.65
25232;BME280;13176;51.140;6.290;2022-07-04T04:19:33;101301.31;;;18.55;57.60
25232;BME280;13176;51.140;6.290;2022-07-04T04:22:00;101366.53;;;19.02;57.59
25232;BME280;13176;51.140;6.290;2022-07-04T04:24:26;101369.75;;;19.10;57.26
25232;BME280;13176;51.140;6.290;2022-07-04T04:26:52;101366.19;;;19.11;56.66
25232;BME280;13176;51.140;6.290;2022-07-04T04:29:19;101350.75;;;18.99;56.94
25232;BME280;13176;51.140;6.290;2022-07-04T04:31:45;101374.94;;;19.13;57.14
25232;BME280;13176;51.140;6.290;2022-07-04T04:34:12;101348.47;;;18.90;57.63
25232;BME280;13176;51.140;6.290;2022-07-04T04:36:39;101374.34;;;19.05;57.49
25232;BME280;13176;51.140;6.290;2022-07-04T04:39:05;101362.94;;;19.03;57.86
25232;BME280;13176;51.140;6.290;2022-07-04T04:41:32;101387.09;;;19.18;58.19
25232;BME280;13176;51.140;6.290;2022-07-04T04:43:58;101390.00;;;19.34;57.28
25232;BME280;13176;51.140;6.290;2022-07-04T04:46:25;101387.13;;;19.40;57.04
25232;BME280;13176;51.140;6.290;2022-07-04T04:48:51;101366.44;;;19.28;57.23
25232;BME280;13176;51.140;6.290;2022-07-04T04:51:18;101399.44;;;19.41;57.39
25232;BME280;13176;51.140;6.290;2022-07-04T04:53:44;101367.47;;;19.24;57.53
25232;BME280;13176;51.140;6.290;2022-07-04T04:56:11;101341.13;;;19.21;57.00
25232;BME280;13176;51.140;6.290;2022-07-04T04:58:37;101393.94;;;19.24;57.60
25232;BME280;13176;51.140;6.290;2022-07-04T05:01:04;101380.03;;;19.19;58.24
25232;BME280;13176;51.140;6.290;2022-07-04T05:03:50;101381.53;;;19.26;58.07
25232;BME280;13176;51.140;6.290;2022-07-04T05:06:17;101365.66;;;19.26;57.94
25232;BME280;13176;51.140;6.290;2022-07-04T05:08:44;101388.50;;;19.50;57.54
25232;BME280;13176;51.140;6.290;2022-07-04T05:11:11;101387.00;;;19.65;57.94
25232;BME280;13176;51.140;6.290;2022-07-04T05:13:37;101370.59;;;19.56;57.08
25232;BME280;13176;51.140;6.290;2022-07-04T05:16:04;101381.44;;;19.71;57.04
25232;BME280;13176;51.140;6.290;2022-07-04T05:18:30;101355.22;;;19.65;56.58
25232;BME280;13176;51.140;6.290;2022-07-04T05:20:58;101367.03;;;19.78;56.89
25232;BME280;13176;51.140;6.290;2022-07-04T05:23:25;101400.16;;;19.88;56.62
25232;BME280;13176;51.140;6.290;2022-07-04T05:25:51;101398.56;;;19.84;57.41
25232;BME280;13176;51.140;6.290;2022-07-04T05:28:18;101384.28;;;19.88;57.05
25232;BME280;13176;51.140;6.290;2022-07-04T05:30:44;101344.09;;;19.77;56.87
25232;BME280;13176;51.140;6.290;2022-07-04T05:33:11;101391.31;;;20.11;56.79
25232;BME280;13176;51.140;6.290;2022-07-04T05:35:37;101390.06;;;20.19;56.66
25232;BME280;13176;51.140;6.290;2022-07-04T05:38:04;101380.44;;;19.95;57.50
25232;BME280;13176;51.140;6.290;2022-07-04T05:40:30;101381.81;;;19.84;57.62
25232;BME280;13176;51.140;6.290;2022-07-04T05:42:56;101378.09;;;20.09;57.01
25232;BME280;13176;51.140;6.290;2022-07-04T05:45:23;101376.56;;;20.25;57.00
25232;BME280;13176;51.140;6.290;2022-07-04T05:47:49;101393.94;;;20.52;56.61
25232;BME280;13176;51.140;6.290;2022-07-04T05:50:16;101388.69;;;20.51;56.09
25232;BME280;13176;51.140;6.290;2022-07-04T05:52:42;101360.38;;;20.51;55.91
25232;BME280;13176;51.140;6.290;2022-07-04T05:55:09;101358.66;;;20.50;56.30
25232;BME280;13176;51.140;6.290;2022-07-04T05:57:36;101372.31;;;20.61;56.53
25232;BME280;13176;51.140;6.290;2022-07-04T06:00:10;101386.50;;;20.80;56.41
25232;BME280;13176;51.140;6.290;2022-07-04T06:02:38;101395.66;;;20.93;56.28
25232;BME280;13176;51.140;6.290;2022-07-04T06:05:04;101374.84;;;20.84;56.15
25232;BME280;13176;51.140;6.290;2022-07-04T06:07:31;101379.47;;;20.99;56.22
25232;BME280;13176;51.140;6.290;2022-07-04T06:09:57;101370.72;;;20.97;55.94
25232;BME280;13176;51.140;6.290;2022-07-04T06:12:24;101376.84;;;20.97;55.86
25232;BME280;13176;51.140;6.290;2022-07-04T06:14:50;101367.13;;;20.98;55.68
25232;BME280;13176;51.140;6.290;2022-07-04T06:17:17;101372.81;;;21.09;55.26
25232;BME280;13176;51.140;6.290;2022-07-04T06:19:43;101376.53;;;21.05;55.24
25232;BME280;13176;51.140;6.290;2022-07-04T06:22:10;101352.41;;;20.91;55.09
25232;BME280;13176;51.140;6.290;2022-07-04T06:24:36;101368.97;;;20.96;54.64
25232;BME280;13176;51.140;6.290;2022-07-04T06:27:03;101340.84;;;20.92;54.39
25232;BME280;13176;51.140;6.290;2022-07-04T06:29:29;101354.22;;;21.09;53.57
25232;BME280;13176;51.140;6.290;2022-07-04T06:31:56;101348.28;;;21.22;53.19
25232;BME280;13176;51.140;6.290;2022-07-04T06:34:23;101364.53;;;21.52;51.81
25232;BME280;13176;51.140;6.290;2022-07-04T06:37:08;101364.88;;;21.64;52.45
25232;BME280;13176;51.140;6.290;2022-07-04T06:39:35;101386.81;;;21.68;51.87
25232;BME280;13176;51.140;6.290;2022-07-04T06:42:01;101365.13;;;21.77;50.95
25232;BME280;13176;51.140;6.290;2022-07-04T06:44:28;101372.41;;;21.90;51.26
25232;BME280;13176;51.140;6.290;2022-07-04T06:46:54;101380.72;;;22.01;50.84
25232;BME280;13176;51.140;6.290;2022-07-04T06:49:21;101367.78;;;21.93;51.24
25232;BME280;13176;51.140;6.290;2022-07-04T06:51:47;101372.25;;;21.93;51.12
25232;BME280;13176;51.140;6.290;2022-07-04T06:54:14;101384.56;;;22.12;51.21
25232;BME280;13176;51.140;6.290;2022-07-04T06:56:40;101350.91;;;21.94;51.48
25232;BME280;13176;51.140;6.290;2022-07-04T06:59:07;101393.38;;;21.96;51.85
25232;BME280;13176;51.140;6.290;2022-07-04T07:01:33;101364.50;;;21.88;51.74
25232;BME280;13176;51.140;6.290;2022-07-04T07:04:00;101367.84;;;21.57;51.94
25232;BME280;13176;51.140;6.290;2022-07-04T07:06:26;101348.53;;;21.53;52.68
25232;BME280;13176;51.140;6.290;2022-07-04T07:08:53;101376.31;;;21.83;52.08
25232;BME280;13176;51.140;6.290;2022-07-04T07:11:19;101360.59;;;21.79;52.38
25232;BME280;13176;51.140;6.290;2022-07-04T07:13:48;101379.06;;;21.82;53.20
25232;BME280;13176;51.140;6.290;2022-07-04T07:16:18;101354.28;;;21.63;53.43
25232;BME280;13176;51.140;6.290;2022-07-04T07:18:45;101367.94;;;21.90;52.60
25232;BME280;13176;51.140;6.290;2022-07-04T07:21:12;101352.91;;;21.54;53.09
25232;BME280;13176;51.140;6.290;2022-07-04T07:23:39;101335.09;;;21.75;53.02
25232;BME280;13176;51.140;6.290;2022-07-04T07:26:07;101389.75;;;22.15;53.10
25232;BME280;13176;51.140;6.290;2022-07-04T07:28:34;101351.19;;;21.72;52.20
25232;BME280;13176;51.140;6.290;2022-07-04T07:31:01;101339.63;;;21.89;51.55
25232;BME280;13176;51.140;6.290;2022-07-04T07:33:28;101308.28;;;21.62;51.47
25232;BME280;13176;51.140;6.290;2022-07-04T07:35:54;101391.13;;;22.22;51.35
25232;BME280;13176;51.140;6.290;2022-07-04T07:38:21;101384.09;;;22.21;51.32
25232;BME280;13176;51.140;6.290;2022-07-04T07:40:47;101385.34;;;22.14;50.80
25232;BME280;13176;51.140;6.290;2022-07-04T07:43:14;101346.22;;;21.99;50.46
25232;BME280;13176;51.140;6.290;2022-07-04T07:45:40;101387.53;;;22.23;51.15
25232;BME280;13176;51.140;6.290;2022-07-04T07:48:07;101398.16;;;22.23;50.64
25232;BME280;13176;51.140;6.290;2022-07-04T07:50:33;101362.66;;;22.24;50.30
25232;BME280;13176;51.140;6.290;2022-07-04T07:53:00;101373.13;;;22.27;50.00
25232;BME280;13176;51.140;6.290;2022-07-04T07:55:26;101399.63;;;22.64;49.17
25232;BME280;13176;51.140;6.290;2022-07-04T07:57:53;101387.59;;;22.57;49.34
25232;BME280;13176;51.140;6.290;2022-07-04T08:00:20;101388.38;;;22.42;48.69
25232;BME280;13176;51.140;6.290;2022-07-04T08:03:06;101324.66;;;22.05;48.82
25232;BME280;13176;51.140;6.290;2022-07-04T08:05:52;101377.31;;;22.67;48.67
25232;BME280;13176;51.140;6.290;2022-07-04T08:08:18;101389.13;;;22.78;47.90
25232;BME280;13176;51.140;6.290;2022-07-04T08:10:46;101355.16;;;22.66;47.73
25232;BME280;13176;51.140;6.290;2022-07-04T08:13:12;101392.81;;;23.25;47.27
25232;BME280;13176;51.140;6.290;2022-07-04T08:15:39;101266.78;;;22.92;46.54
25232;BME280;13176;51.140;6.290;2022-07-04T08:18:05;101320.09;;;23.08;46.97
25232;BME280;13176;51.140;6.290;2022-07-04T08:20:32;101364.81;;;23.80;46.79
25232;BME280;13176;51.140;6.290;2022-07-04T08:23:18;101344.47;;;23.77;46.29
25232;BME280;13176;51.140;6.290;2022-07-04T08:25:45;101339.59;;;23.54;45.01
25232;BME280;13176;51.140;6.290;2022-07-04T08:28:11;101394.28;;;23.61;46.17
25232;BME280;13176;51.140;6.290;2022-07-04T08:30:38;101377.19;;;23.81;45.99
25232;BME280;13176;51.140;6.290;2022-07-04T08:33:04;101329.00;;;23.84;45.42
25232;BME280;13176;51.140;6.290;2022-07-04T08:35:31;101314.63;;;24.02;44.25
25232;BME280;13176;51.140;6.290;2022-07-04T08:37:57;101366.97;;;24.47;42.44
25232;BME280;13176;51.140;6.290;2022-07-04T08:40:25;101362.69;;;24.00;43.43
25232;BME280;13176;51.140;6.290;2022-07-04T08:42:52;101365.69;;;24.10;43.38
25232;BME280;13176;51.140;6.290;2022-07-04T08:45:28;101369.25;;;23.95;43.33
25232;BME280;13176;51.140;6.290;2022-07-04T08:48:06;101373.81;;;24.22;44.40
25232;BME280;13176;51.140;6.290;2022-07-04T08:53:10;101374.63;;;24.53;44.14
25232;BME280;13176;51.140;6.290;2022-07-04T08:55:39;101384.28;;;24.40;42.21
25232;BME280;13176;51.140;6.290;2022-07-04T08:58:25;101381.03;;;24.35;41.88
25232;BME280;13176;51.140;6.290;2022-07-04T09:00:52;101336.47;;;24.22;41.92
25232;BME280;13176;51.140;6.290;2022-07-04T09:03:20;101346.78;;;24.28;41.48
25232;BME280;13176;51.140;6.290;2022-07-04T09:05:48;101367.88;;;24.32;41.39
25232;BME280;13176;51.140;6.290;2022-07-04T09:08:15;101378.09;;;24.40;40.82
25232;BME280;13176;51.140;6.290;2022-07-04T09:10:42;101373.03;;;24.35;39.85
25232;BME280;13176;51.140;6.290;2022-07-04T09:13:10;101354.72;;;24.29;41.49
25232;BME280;13176;51.140;6.290;2022-07-04T09:15:40;101363.72;;;24.13;41.58
25232;BME280;13176;51.140;6.290;2022-07-04T09:18:19;101355.31;;;24.05;41.60
25232;BME280;13176;51.140;6.290;2022-07-04T09:20:46;101323.47;;;24.45;41.81
25232;BME280;13176;51.140;6.290;2022-07-04T09:23:23;101345.88;;;25.14;41.52
25232;BME280;13176;51.140;6.290;2022-07-04T09:26:08;101360.50;;;25.23;41.56
25232;BME280;13176;51.140;6.290;2022-07-04T09:28:37;101340.59;;;24.99;42.00
25232;BME280;13176;51.140;6.290;2022-07-04T09:31:15;101354.25;;;24.94;41.44
25232;BME280;13176;51.140;6.290;2022-07-04T09:36:20;101328.94;;;24.15;41.40
25232;BME280;13176;51.140;6.290;2022-07-04T09:39:16;101328.09;;;25.13;41.69
25232;BME280;13176;51.140;6.290;2022-07-04T09:42:01;101366.56;;;25.79;39.79
25232;BME280;13176;51.140;6.290;2022-07-04T09:44:42;101363.56;;;25.57;38.85
25232;BME280;13176;51.140;6.290;2022-07-04T09:47:20;101365.13;;;25.47;37.99
25232;BME280;13176;51.140;6.290;2022-07-04T09:50:09;101331.16;;;25.21;37.77
25232;BME280;13176;51.140;6.290;2022-07-04T09:52:47;101369.66;;;25.59;38.06
25232;BME280;13176;51.140;6.290;2022-07-04T09:55:31;101378.00;;;25.54;39.25
25232;BME280;13176;51.140;6.290;2022-07-04T09:58:00;101354.69;;;25.56;38.80
25232;BME280;13176;51.140;6.290;2022-07-04T10:00:29;101371.78;;;25.54;38.19
25232;BME280;13176;51.140;6.290;2022-07-04T10:02:58;101336.69;;;25.46;38.95
25232;BME280;13176;51.140;6.290;2022-07-04T10:05:41;101372.41;;;25.85;38.21
25232;BME280;13176;51.140;6.290;2022-07-04T10:08:07;101360.63;;;25.88;39.13
25232;BME280;13176;51.140;6.290;2022-07-04T10:10:36;101372.84;;;25.92;38.65
25232;BME280;13176;51.140;6.290;2022-07-04T10:13:11;101354.66;;;25.97;38.69
25232;BME280;13176;51.140;6.290;2022-07-04T10:15:39;101364.38;;;25.85;37.51
25232;BME280;13176;51.140;6.290;2022-07-04T10:18:07;101367.38;;;26.20;38.34
25232;BME280;13176;51.140;6.290;2022-07-04T10:20:35;101351.56;;;26.42;37.49
25232;BME280;13176;51.140;6.290;2022-07-04T10:23:01;101358.25;;;26.73;37.51
25232;BME280;13176;51.140;6.290;2022-07-04T10:25:28;101353.97;;;26.59;35.54
25232;BME280;13176;51.140;6.290;2022-07-04T10:27:56;101255.38;;;26.26;34.70
25232;BME280;13176;51.140;6.290;2022-07-04T10:30:28;101318.28;;;26.70;35.31
25232;BME280;13176;51.140;6.290;2022-07-04T10:32:57;101350.56;;;26.81;36.08
25232;BME280;13176;51.140;6.290;2022-07-04T10:35:52;101344.75;;;27.12;36.33
25232;BME280;13176;51.140;6.290;2022-07-04T10:38:29;101346.06;;;26.94;36.00
25232;BME280;13176;51.140;6.290;2022-07-04T10:40:58;101333.19;;;26.74;37.21
25232;BME280;13176;51.140;6.290;2022-07-04T10:48:33;101338.97;;;26.05;37.89
25232;BME280;13176;51.140;6.290;2022-07-04T10:51:03;101320.25;;;26.30;35.02
25232;BME280;13176;51.140;6.290;2022-07-04T10:53:31;101317.28;;;26.96;37.59
25232;BME280;13176;51.140;6.290;2022-07-04T10:58:46;101326.09;;;26.98;35.50
25232;BME280;13176;51.140;6.290;2022-07-04T11:01:16;101324.50;;;27.08;35.06
25232;BME280;13176;51.140;6.290;2022-07-04T11:03:53;101282.38;;;26.61;35.45
25232;BME280;13176;51.140;6.290;2022-07-04T11:09:24;101319.47;;;26.91;36.60
25232;BME280;13176;51.140;6.290;2022-07-04T11:12:04;101302.78;;;26.51;37.20
25232;BME280;13176;51.140;6.290;2022-07-04T11:17:04;101314.06;;;26.42;36.47
25232;BME280;13176;51.140;6.290;2022-07-04T11:19:31;101290.56;;;26.47;37.58
25232;BME280;13176;51.140;6.290;2022-07-04T11:21:58;101301.88;;;26.63;34.65
25232;BME280;13176;51.140;6.290;2022-07-04T11:24:26;101283.69;;;26.55;34.84
25232;BME280;13176;51.140;6.290;2022-07-04T11:26:53;101261.91;;;27.56;34.53
25232;BME280;13176;51.140;6.290;2022-07-04T11:29:19;101290.53;;;27.68;33.63
25232;BME280;13176;51.140;6.290;2022-07-04T11:31:48;101279.44;;;28.30;33.02
25232;BME280;13176;51.140;6.290;2022-07-04T11:34:16;101283.06;;;28.86;33.39
25232;BME280;13176;51.140;6.290;2022-07-04T11:36:44;101289.22;;;28.08;32.31
25232;BME280;13176;51.140;6.290;2022-07-04T11:39:16;101288.69;;;27.45;33.30
25232;BME280;13176;51.140;6.290;2022-07-04T11:41:49;101274.47;;;27.56;32.86
25232;BME280;13176;51.140;6.290;2022-07-04T11:44:41;101270.72;;;27.58;33.68
25232;BME280;13176;51.140;6.290;2022-07-04T11:47:40;101279.09;;;27.77;33.66
25232;BME280;13176;51.140;6.290;2022-07-04T11:50:12;101282.25;;;28.29;32.94
25232;BME280;13176;51.140;6.290;2022-07-04T11:52:45;101259.34;;;28.69;32.41
25232;BME280;13176;51.140;6.290;2022-07-04T11:55:32;101259.34;;;28.91;31.64
25232;BME280;13176;51.140;6.290;2022-07-04T11:57:59;101243.91;;;28.82;33.73
25232;BME280;13176;51.140;6.290;2022-07-04T12:00:28;101282.09;;;28.98;31.50
25232;BME280;13176;51.140;6.290;2022-07-04T12:02:59;101281.03;;;28.44;33.16
25232;BME280;13176;51.140;6.290;2022-07-04T12:05:27;101277.38;;;28.45;32.32
25232;BME280;13176;51.140;6.290;2022-07-04T12:07:53;101264.72;;;27.78;31.97
25232;BME280;13176;51.140;6.290;2022-07-04T12:10:40;101244.50;;;27.38;32.93
25232;BME280;13176;51.140;6.290;2022-07-04T12:13:13;101243.81;;;27.47;32.94
25232;BME280;13176;51.140;6.290;2022-07-04T12:15:43;101250.78;;;27.73;32.06
25232;BME280;13176;51.140;6.290;2022-07-04T12:18:17;101277.50;;;27.98;32.50
25232;BME280;13176;51.140;6.290;2022-07-04T12:20:44;101269.84;;;27.81;32.54
25232;BME280;13176;51.140;6.290;2022-07-04T12:23:11;101233.38;;;27.79;32.78
25232;BME280;13176;51.140;6.290;2022-07-04T12:25:38;101217.47;;;28.10;32.02
25232;BME280;13176;51.140;6.290;2022-07-04T12:28:06;101272.31;;;28.86;32.15
25232;BME280;13176;51.140;6.290;2022-07-04T12:30:35;101241.13;;;28.83;32.17
25232;BME280;13176;51.140;6.290;2022-07-04T12:33:07;101269.63;;;29.08;31.19
25232;BME280;13176;51.140;6.290;2022-07-04T12:35:45;101272.56;;;28.94;30.88
25232;BME280;13176;51.140;6.290;2022-07-04T12:40:58;101231.47;;;28.59;30.34
25232;BME280;13176;51.140;6.290;2022-07-04T12:46:29;101267.38;;;28.36;31.56
25232;BME280;13176;51.140;6.290;2022-07-04T12:48:59;101259.81;;;28.63;31.57
25232;BME280;13176;51.140;6.290;2022-07-04T12:51:33;101262.03;;;29.02;31.06
25232;BME280;13176;51.140;6.290;2022-07-04T12:54:09;101242.19;;;29.13;30.64
25232;BME280;13176;51.140;6.290;2022-07-04T12:56:38;101255.41;;;30.01;30.41
25232;BME280;13176;51.140;6.290;2022-07-04T12:59:07;101220.38;;;29.70;29.39
25232;BME280;13176;51.140;6.290;2022-07-04T13:01:39;101241.22;;;29.99;29.15
25232;BME280;13176;51.140;6.290;2022-07-04T13:04:06;101228.25;;;29.41;28.78
25232;BME280;13176;51.140;6.290;2022-07-04T13:06:33;101256.72;;;29.44;28.90
25232;BME280;13176;51.140;6.290;2022-07-04T13:09:01;101188.63;;;29.21;28.38
25232;BME280;13176;51.140;6.290;2022-07-04T13:11:28;101265.13;;;29.50;29.53
25232;BME280;13176;51.140;6.290;2022-07-04T13:14:13;101246.66;;;28.93;29.74
25232;BME280;13176;51.140;6.290;2022-07-04T13:16:39;101255.06;;;28.44;30.56
25232;BME280;13176;51.140;6.290;2022-07-04T13:19:06;101232.56;;;27.89;32.02
25232;BME280;13176;51.140;6.290;2022-07-04T13:21:33;101250.56;;;27.76;32.39
25232;BME280;13176;51.140;6.290;2022-07-04T13:24:00;101232.13;;;28.17;31.02